createdAt,value
2017-06-27T00:01:26.417Z,54.20
2017-06-27T00:03:53.977Z,53.70
2017-06-27T00:06:21.533Z,53.90
2017-06-27T00:08:49.098Z,54.00
2017-06-27T00:11:16.652Z,53.90
2017-06-27T00:13:44.133Z,54.20
2017-06-27T00:16:12.385Z,54.10
2017-06-27T00:18:39.935Z,54.10
2017-06-27T00:21:07.411Z,54.40
2017-06-27T00:23:35.636Z,54.20
2017-06-27T00:26:03.102Z,54.10
2017-06-27T00:28:30.552Z,54.20
2017-06-27T00:30:58.046Z,54.40
2017-06-27T00:33:25.622Z,54.60
2017-06-27T00:35:53.861Z,54.40
2017-06-27T00:38:21.323Z,54.40
2017-06-27T00:40:48.884Z,54.30
2017-06-27T00:43:16.348Z,54.30
2017-06-27T00:45:43.800Z,54.40
2017-06-27T00:48:11.360Z,54.20
2017-06-27T00:50:38.911Z,54.20
2017-06-27T00:53:06.367Z,54.90
2017-06-27T00:55:33.964Z,54.50
2017-06-27T00:58:02.297Z,54.80
2017-06-27T01:00:29.901Z,54.80
2017-06-27T01:02:58.765Z,55.00
2017-06-27T01:05:26.224Z,54.90
2017-06-27T01:07:53.780Z,55.00
2017-06-27T01:10:21.246Z,54.50
2017-06-27T01:12:48.787Z,54.70
2017-06-27T01:15:16.239Z,54.90
2017-06-27T01:17:43.700Z,54.90
2017-06-27T01:20:11.174Z,54.80
2017-06-27T01:22:39.431Z,55.30
2017-06-27T01:25:06.888Z,55.00
2017-06-27T01:27:34.347Z,55.40
2017-06-27T01:30:01.995Z,54.80
2017-06-27T01:32:29.462Z,54.70
2017-06-27T01:34:56.913Z,54.60
2017-06-27T01:37:24.372Z,54.80
2017-06-27T01:39:51.852Z,55.20
2017-06-27T01:42:20.117Z,55.00
2017-06-27T01:44:47.673Z,54.90
2017-06-27T01:47:15.142Z,55.00
2017-06-27T01:49:43.405Z,54.90
2017-06-27T01:52:10.878Z,54.80
2017-06-27T01:54:39.337Z,54.90
2017-06-27T01:57:06.902Z,54.80
2017-06-27T01:59:34.453Z,55.00
2017-06-27T02:02:01.923Z,54.90
2017-06-27T02:04:29.476Z,54.70
2017-06-27T02:06:57.033Z,54.80
2017-06-27T02:09:24.614Z,54.60
2017-06-27T02:11:52.866Z,54.70
2017-06-27T02:14:20.366Z,54.60
2017-06-27T02:16:47.886Z,54.80
2017-06-27T02:19:15.351Z,55.00
2017-06-27T02:21:43.582Z,55.20
2017-06-27T02:24:11.174Z,55.20
2017-06-27T02:26:38.719Z,55.40
2017-06-27T02:29:06.175Z,55.60
2017-06-27T02:31:33.751Z,55.90
2017-06-27T02:34:01.216Z,56.00
2017-06-27T02:36:29.487Z,57.10
2017-06-27T02:38:56.947Z,56.50
2017-06-27T02:41:25.210Z,56.90
2017-06-27T02:43:52.773Z,56.60
2017-06-27T02:46:20.338Z,56.40
2017-06-27T02:48:48.600Z,57.50
2017-06-27T02:51:16.077Z,56.80
2017-06-27T02:53:44.304Z,57.00
2017-06-27T02:56:11.851Z,56.90
2017-06-27T02:58:39.347Z,57.00
2017-06-27T03:01:06.905Z,57.30
2017-06-27T03:03:34.456Z,57.20
2017-06-27T03:06:01.918Z,57.40
2017-06-27T03:08:29.471Z,57.50
2017-06-27T03:10:57.005Z,57.70
2017-06-27T03:13:24.496Z,57.80
2017-06-27T03:15:51.980Z,57.50
2017-06-27T03:18:20.203Z,57.80
2017-06-27T03:20:47.669Z,57.70
2017-06-27T03:23:15.124Z,58.10
2017-06-27T03:25:42.595Z,58.20
2017-06-27T03:28:10.061Z,58.00
2017-06-27T03:30:38.287Z,58.40
2017-06-27T03:33:05.776Z,58.10
2017-06-27T03:35:33.331Z,58.20
2017-06-27T03:38:00.817Z,58.20
2017-06-27T03:40:29.081Z,59.10
2017-06-27T03:42:56.550Z,58.40
2017-06-27T03:45:24.780Z,58.30
2017-06-27T03:47:52.269Z,58.30
2017-06-27T03:50:19.742Z,58.20
2017-06-27T03:52:47.963Z,58.60
2017-06-27T03:55:15.449Z,58.50
2017-06-27T03:57:43.003Z,58.50
2017-06-27T04:00:10.470Z,58.60
2017-06-27T04:02:37.946Z,58.60
2017-06-27T04:05:06.196Z,58.50
2017-06-27T04:07:33.660Z,58.50
2017-06-27T04:10:01.148Z,58.20
2017-06-27T04:12:28.659Z,57.90
2017-06-27T04:14:56.125Z,58.10
2017-06-27T04:17:23.605Z,58.00
2017-06-27T04:19:51.819Z,57.10
2017-06-27T04:22:19.322Z,57.00
2017-06-27T04:24:46.775Z,56.50
2017-06-27T04:27:14.333Z,56.40
2017-06-27T04:29:41.801Z,56.20
2017-06-27T04:32:10.023Z,55.60
2017-06-27T04:34:37.518Z,55.60
2017-06-27T04:37:04.981Z,55.50
2017-06-27T04:39:32.526Z,55.70
2017-06-27T04:42:00.091Z,55.80
2017-06-27T04:44:27.650Z,55.90
2017-06-27T04:46:55.209Z,55.40
2017-06-27T04:49:22.677Z,55.40
2017-06-27T04:51:50.959Z,55.90
2017-06-27T04:54:19.208Z,54.70
2017-06-27T04:56:46.773Z,54.70
2017-06-27T04:59:14.347Z,54.80
2017-06-27T05:01:42.599Z,54.60
2017-06-27T05:04:10.166Z,54.50
2017-06-27T05:06:37.733Z,54.60
2017-06-27T05:09:05.206Z,55.30
2017-06-27T05:11:33.442Z,54.60
2017-06-27T05:14:01.017Z,54.60
2017-06-27T05:16:28.482Z,54.60
2017-06-27T05:18:56.745Z,54.50
2017-06-27T05:21:24.299Z,53.70
2017-06-27T05:23:51.861Z,53.90
2017-06-27T05:26:19.347Z,53.40
2017-06-27T05:28:47.656Z,53.50
2017-06-27T05:31:15.120Z,53.40
2017-06-27T05:33:42.571Z,53.40
2017-06-27T05:36:10.087Z,53.20
2017-06-27T05:38:38.323Z,52.80
2017-06-27T05:41:05.901Z,52.60
2017-06-27T05:43:33.465Z,52.80
2017-06-27T05:46:00.935Z,52.80
2017-06-27T05:48:29.184Z,51.60
2017-06-27T05:50:56.643Z,51.60
2017-06-27T05:53:24.101Z,51.60
2017-06-27T05:55:51.678Z,52.00
2017-06-27T05:58:19.931Z,52.40
2017-06-27T06:00:47.391Z,52.40
2017-06-27T06:03:14.957Z,52.70
2017-06-27T06:05:42.713Z,52.00
2017-06-27T06:08:10.385Z,52.70
2017-06-27T06:10:37.851Z,52.00
2017-06-27T06:13:06.122Z,51.10
2017-06-27T06:15:33.591Z,51.10
2017-06-27T06:18:01.850Z,52.20
2017-06-27T06:20:29.410Z,52.10
2017-06-27T06:22:56.876Z,51.50
2017-06-27T06:25:25.096Z,50.30
2017-06-27T06:27:52.566Z,50.30
2017-06-27T06:30:20.047Z,50.40
2017-06-27T06:32:47.610Z,51.10
2017-06-27T06:35:15.057Z,51.80
2017-06-27T06:37:42.613Z,51.40
2017-06-27T06:40:10.174Z,50.90
2017-06-27T06:42:37.641Z,50.80
2017-06-27T06:45:05.194Z,51.00
2017-06-27T06:47:32.673Z,50.70
2017-06-27T06:50:00.957Z,50.50
2017-06-27T06:52:28.407Z,50.40
2017-06-27T06:54:57.508Z,50.00
2017-06-27T06:57:25.766Z,49.50
2017-06-27T06:59:53.310Z,49.50
2017-06-27T07:02:20.761Z,49.20
2017-06-27T07:04:48.316Z,49.80
2017-06-27T07:07:15.771Z,50.00
2017-06-27T07:09:43.340Z,49.50
2017-06-27T07:12:10.898Z,49.10
2017-06-27T07:14:38.361Z,48.50
2017-06-27T07:17:05.816Z,48.40
2017-06-27T07:19:33.290Z,49.50
2017-06-27T07:22:01.603Z,48.80
2017-06-27T07:24:29.101Z,48.70
2017-06-27T07:26:56.661Z,48.70
2017-06-27T07:29:24.211Z,48.10
2017-06-27T07:31:51.667Z,47.80
2017-06-27T07:34:19.239Z,48.40
2017-06-27T07:36:46.798Z,48.10
2017-06-27T07:39:14.262Z,48.50
2017-06-27T07:41:41.804Z,47.80
2017-06-27T07:44:09.370Z,46.80
2017-06-27T07:46:36.838Z,48.50
2017-06-27T07:49:04.386Z,47.90
2017-06-27T07:51:31.857Z,47.40
2017-06-27T07:54:00.117Z,46.50
2017-06-27T07:56:27.585Z,46.40
2017-06-27T07:58:55.806Z,47.60
2017-06-27T08:01:23.312Z,47.00
2017-06-27T08:03:51.033Z,46.50
2017-06-27T08:06:18.724Z,45.70
2017-06-27T08:08:46.190Z,46.50
2017-06-27T08:11:13.755Z,46.20
2017-06-27T08:13:41.314Z,45.80
2017-06-27T08:16:08.858Z,45.90
2017-06-27T08:18:36.333Z,45.80
2017-06-27T08:21:04.589Z,45.70
2017-06-27T08:23:32.040Z,45.10
2017-06-27T08:25:59.720Z,45.00
2017-06-27T08:28:27.172Z,43.90
2017-06-27T08:30:54.726Z,45.10
2017-06-27T08:33:22.185Z,45.30
2017-06-27T08:35:49.641Z,44.60
2017-06-27T08:38:18.490Z,45.70
2017-06-27T08:40:46.805Z,44.90
2017-06-27T08:43:14.363Z,44.80
2017-06-27T08:45:41.821Z,44.40
2017-06-27T08:48:09.293Z,45.20
2017-06-27T08:50:37.517Z,42.70
2017-06-27T08:53:05.109Z,42.60
2017-06-27T08:55:32.563Z,42.30
2017-06-27T08:58:00.016Z,42.90
2017-06-27T09:00:27.592Z,44.60
2017-06-27T09:02:55.137Z,44.70
2017-06-27T09:05:22.602Z,44.30
2017-06-27T09:07:50.153Z,44.20
2017-06-27T09:10:17.624Z,43.70
2017-06-27T09:12:45.895Z,43.40
2017-06-27T09:15:14.129Z,43.40
2017-06-27T09:17:41.585Z,42.70
2017-06-27T09:20:09.063Z,43.20
2017-06-27T09:22:36.547Z,43.30
2017-06-27T09:25:04.760Z,44.20
2017-06-27T09:27:32.252Z,44.10
2017-06-27T09:29:59.717Z,43.70
2017-06-27T09:32:27.172Z,42.50
2017-06-27T09:34:54.717Z,43.10
2017-06-27T09:37:22.181Z,43.10
2017-06-27T09:39:49.627Z,43.60
2017-06-27T09:42:17.197Z,41.40
2017-06-27T09:44:44.657Z,41.50
2017-06-27T09:47:12.118Z,41.10
2017-06-27T09:49:39.679Z,41.80
2017-06-27T09:52:07.149Z,42.30
2017-06-27T09:54:35.387Z,39.90
2017-06-27T09:57:02.851Z,39.80
2017-06-27T09:59:30.321Z,40.90
2017-06-27T10:01:57.877Z,41.50
2017-06-27T10:04:25.438Z,41.10
2017-06-27T10:06:52.893Z,41.70
2017-06-27T10:09:20.352Z,41.50
2017-06-27T10:11:47.827Z,42.50
2017-06-27T10:14:16.067Z,43.50
2017-06-27T10:16:43.540Z,43.60
2017-06-27T10:19:11.007Z,42.30
2017-06-27T10:21:39.226Z,41.50
2017-06-27T10:24:06.745Z,41.50
2017-06-27T10:26:35.006Z,41.60
2017-06-27T10:29:03.277Z,41.70
2017-06-27T10:31:30.826Z,41.60
2017-06-27T10:33:58.318Z,40.00
2017-06-27T10:36:26.554Z,41.40
2017-06-27T10:38:54.033Z,41.40
2017-06-27T10:41:21.597Z,40.30
2017-06-27T10:43:49.826Z,41.30
2017-06-27T10:46:17.275Z,41.30
2017-06-27T10:48:44.733Z,41.00
2017-06-27T10:51:12.239Z,40.50
2017-06-27T10:53:40.469Z,39.40
2017-06-27T10:56:07.924Z,38.80
2017-06-27T10:58:35.417Z,40.60
2017-06-27T11:01:02.969Z,40.80
2017-06-27T11:03:30.438Z,38.20
2017-06-27T11:05:57.988Z,39.00
2017-06-27T11:08:25.539Z,39.60
2017-06-27T11:10:53.101Z,39.50
2017-06-27T11:13:20.665Z,39.00
2017-06-27T11:15:48.230Z,38.80
2017-06-27T11:18:16.485Z,40.10
2017-06-27T11:20:44.058Z,40.10
2017-06-27T11:23:11.521Z,38.00
2017-06-27T11:25:39.070Z,39.20
2017-06-27T11:28:06.524Z,37.60
2017-06-27T11:30:33.980Z,39.20
2017-06-27T11:33:01.542Z,38.50
2017-06-27T11:35:29.091Z,39.50
2017-06-27T11:37:56.556Z,39.20
2017-06-27T11:40:24.010Z,39.20
2017-06-27T11:42:51.570Z,39.80
2017-06-27T11:45:19.042Z,41.00
2017-06-27T11:47:46.580Z,40.30
2017-06-27T11:50:14.136Z,40.60
2017-06-27T11:52:41.584Z,41.00
2017-06-27T11:55:09.059Z,39.70
2017-06-27T11:57:37.606Z,39.80
2017-06-27T12:00:16.890Z,40.30
2017-06-27T12:02:45.113Z,40.30
2017-06-27T12:05:34.128Z,39.70
2017-06-27T12:08:07.201Z,37.80
2017-06-27T12:10:34.762Z,37.80
2017-06-27T12:13:02.222Z,38.30
2017-06-27T12:15:29.684Z,37.90
2017-06-27T12:17:57.901Z,38.00
2017-06-27T12:20:25.361Z,37.90
2017-06-27T12:22:52.862Z,38.80
2017-06-27T12:25:20.420Z,39.60
2017-06-27T12:27:47.977Z,39.30
2017-06-27T12:30:17.026Z,39.40
2017-06-27T12:32:44.648Z,40.20
2017-06-27T12:35:12.887Z,38.90
2017-06-27T12:37:40.353Z,38.80
2017-06-27T12:40:07.953Z,38.80
2017-06-27T12:42:35.481Z,38.50
2017-06-27T12:45:02.942Z,38.10
2017-06-27T12:47:30.488Z,37.60
2017-06-27T12:49:57.964Z,37.30
2017-06-27T12:52:26.215Z,40.10
2017-06-27T12:54:53.738Z,40.00
2017-06-27T12:57:21.201Z,38.80
2017-06-27T12:59:49.443Z,38.90
2017-06-27T13:02:16.904Z,37.60
2017-06-27T13:04:44.432Z,38.60
2017-06-27T13:07:11.888Z,37.70
2017-06-27T13:09:39.436Z,39.20
2017-06-27T13:12:06.911Z,39.30
2017-06-27T13:14:34.462Z,38.10
2017-06-27T13:17:01.925Z,36.60
2017-06-27T13:19:29.426Z,37.80
2017-06-27T13:21:56.868Z,35.40
2017-06-27T13:24:24.373Z,36.40
2017-06-27T13:26:52.095Z,35.00
2017-06-27T13:29:19.612Z,37.10
2017-06-27T13:31:47.157Z,36.80
2017-06-27T13:34:14.633Z,36.70
2017-06-27T13:36:42.094Z,34.60
2017-06-27T13:39:10.380Z,35.20
2017-06-27T13:41:37.849Z,35.60
2017-06-27T13:44:05.310Z,35.20
2017-06-27T13:46:32.838Z,33.90
2017-06-27T13:49:00.297Z,34.20
2017-06-27T13:51:28.553Z,34.10
2017-06-27T13:53:56.136Z,34.00
2017-06-27T13:56:24.391Z,35.10
2017-06-27T13:58:51.940Z,35.10
2017-06-27T14:01:19.505Z,34.60
2017-06-27T14:03:47.055Z,34.30
2017-06-27T14:06:14.516Z,34.10
2017-06-27T14:08:42.081Z,32.80
2017-06-27T14:11:09.535Z,32.30
2017-06-27T14:13:37.089Z,33.80
2017-06-27T14:16:04.565Z,34.40
2017-06-27T14:18:32.821Z,34.20
2017-06-27T14:21:00.473Z,34.20
2017-06-27T14:23:27.927Z,34.00
2017-06-27T14:25:55.397Z,33.80
2017-06-27T14:28:22.956Z,33.50
2017-06-27T14:30:50.436Z,32.60
2017-06-27T14:33:18.680Z,32.90
2017-06-27T14:35:46.143Z,32.90
2017-06-27T14:38:13.604Z,32.80
2017-06-27T14:40:41.166Z,32.50
2017-06-27T14:43:08.673Z,33.10
2017-06-27T14:45:36.177Z,32.90
2017-06-27T14:48:03.729Z,34.00
2017-06-27T14:50:31.180Z,33.10
2017-06-27T14:52:58.744Z,35.20
2017-06-27T14:55:26.208Z,33.40
2017-06-27T14:57:53.683Z,34.20
2017-06-27T15:00:21.905Z,33.90
2017-06-27T15:02:49.379Z,33.90
2017-06-27T15:05:16.833Z,34.00
2017-06-27T15:07:44.313Z,32.90
2017-06-27T15:10:11.761Z,34.00
2017-06-27T15:12:39.231Z,32.80
2017-06-27T15:15:06.777Z,33.40
2017-06-27T15:17:34.322Z,33.50
2017-06-27T15:20:01.796Z,32.90
2017-06-27T15:22:29.291Z,33.30
2017-06-27T15:24:56.815Z,32.20
2017-06-27T15:27:24.259Z,32.50
2017-06-27T15:29:51.725Z,32.30
2017-06-27T15:32:19.277Z,31.90
2017-06-27T15:34:46.839Z,32.40
2017-06-27T15:37:14.293Z,33.50
2017-06-27T15:39:41.848Z,32.70
2017-06-27T15:42:09.327Z,32.70
2017-06-27T15:44:37.583Z,32.10
2017-06-27T15:47:05.062Z,32.10
2017-06-27T15:49:33.318Z,32.60
2017-06-27T15:52:01.689Z,32.50
2017-06-27T15:54:29.141Z,33.30
2017-06-27T15:56:56.709Z,33.30
2017-06-27T15:59:24.268Z,33.40
2017-06-27T16:01:51.725Z,32.90
2017-06-27T16:04:19.284Z,33.30
2017-06-27T16:06:46.750Z,34.90
2017-06-27T16:09:14.235Z,34.10
2017-06-27T16:11:41.696Z,35.00
2017-06-27T16:14:09.251Z,34.00
2017-06-27T16:16:36.805Z,33.70
2017-06-27T16:19:05.003Z,33.50
2017-06-27T16:21:32.477Z,33.30
2017-06-27T16:23:59.939Z,33.20
2017-06-27T16:26:27.488Z,33.00
2017-06-27T16:28:54.977Z,33.60
2017-06-27T16:31:22.537Z,34.10
2017-06-27T16:33:49.996Z,34.30
2017-06-27T16:36:17.559Z,33.00
2017-06-27T16:38:45.110Z,32.90
2017-06-27T16:41:12.570Z,31.40
2017-06-27T16:43:40.079Z,32.70
2017-06-27T16:46:07.534Z,34.40
2017-06-27T16:48:34.992Z,33.80
2017-06-27T16:51:02.552Z,33.90
2017-06-27T16:53:30.055Z,33.80
2017-06-27T16:55:58.426Z,33.80
2017-06-27T16:58:25.985Z,33.70
2017-06-27T17:00:53.432Z,33.70
2017-06-27T17:03:21.002Z,34.20
2017-06-27T17:05:48.556Z,33.50
2017-06-27T17:08:16.122Z,33.50
2017-06-27T17:10:43.592Z,33.30
2017-06-27T17:13:11.858Z,32.50
2017-06-27T17:15:39.414Z,32.40
2017-06-27T17:18:07.785Z,32.40
2017-06-27T17:20:36.796Z,32.30
2017-06-27T17:23:05.161Z,31.80
2017-06-27T17:25:32.627Z,31.80
2017-06-27T17:28:00.849Z,32.40
2017-06-27T17:30:28.349Z,31.80
2017-06-27T17:32:55.814Z,31.90
2017-06-27T17:35:23.373Z,31.80
2017-06-27T17:37:50.882Z,32.60
2017-06-27T17:40:18.377Z,32.90
2017-06-27T17:42:45.974Z,33.20
2017-06-27T17:45:13.468Z,33.20
2017-06-27T17:47:40.988Z,32.80
2017-06-27T17:50:08.518Z,33.00
2017-06-27T17:52:36.036Z,33.00
2017-06-27T17:55:03.528Z,33.30
2017-06-27T17:57:30.985Z,33.30
2017-06-27T17:59:58.445Z,33.10
2017-06-27T18:02:25.925Z,33.80
2017-06-27T18:04:53.393Z,33.50
2017-06-27T18:07:20.919Z,33.30
2017-06-27T18:09:49.186Z,34.80
2017-06-27T18:12:16.688Z,34.80
2017-06-27T18:14:44.216Z,35.20
2017-06-27T18:17:12.494Z,35.50
2017-06-27T18:19:40.767Z,35.80
2017-06-27T18:22:08.995Z,35.90
2017-06-27T18:24:36.484Z,35.90
2017-06-27T18:27:03.986Z,36.50
2017-06-27T18:29:31.492Z,35.70
2017-06-27T18:31:58.990Z,35.80
2017-06-27T18:34:26.547Z,36.90
2017-06-27T18:36:54.912Z,37.90
2017-06-27T18:39:23.214Z,38.20
2017-06-27T18:41:50.738Z,38.10
2017-06-27T18:44:19.025Z,39.50
2017-06-27T18:46:47.312Z,39.20
2017-06-27T18:49:17.112Z,39.20
2017-06-27T18:51:45.363Z,39.70
2017-06-27T18:54:12.891Z,39.70
2017-06-27T18:56:40.386Z,39.30
2017-06-27T18:59:07.933Z,40.00
2017-06-27T19:01:35.430Z,39.60
2017-06-27T19:04:02.881Z,40.30
2017-06-27T19:06:30.456Z,40.10
2017-06-27T19:08:57.960Z,40.00
2017-06-27T19:11:25.432Z,40.50
2017-06-27T19:13:53.010Z,40.70
2017-06-27T19:16:21.232Z,41.20
2017-06-27T19:18:48.750Z,41.20
2017-06-27T19:21:16.243Z,41.30
2017-06-27T19:23:43.696Z,41.50
2017-06-27T19:26:11.178Z,41.80
2017-06-27T19:28:38.623Z,41.70
2017-06-27T19:31:06.201Z,42.00
2017-06-27T19:33:33.649Z,42.30
2017-06-27T19:36:01.109Z,42.70
2017-06-27T19:38:28.564Z,42.70
2017-06-27T19:40:56.024Z,42.90
2017-06-27T19:43:23.572Z,43.60
2017-06-27T19:45:51.031Z,43.40
2017-06-27T19:48:18.584Z,43.90
2017-06-27T19:50:46.059Z,43.80
2017-06-27T19:53:13.517Z,44.10
2017-06-27T19:55:41.070Z,44.50
2017-06-27T19:58:08.551Z,44.40
2017-06-27T20:00:36.887Z,45.00
2017-06-27T20:03:04.354Z,44.90
2017-06-27T20:05:31.796Z,45.20
2017-06-27T20:07:59.271Z,45.00
2017-06-27T20:10:26.820Z,45.20
2017-06-27T20:12:54.276Z,45.50
2017-06-27T20:15:21.849Z,45.40
2017-06-27T20:17:49.300Z,45.40
2017-06-27T20:20:16.852Z,45.70
2017-06-27T20:22:44.318Z,46.10
2017-06-27T20:25:11.785Z,46.00
2017-06-27T20:27:40.064Z,45.50
2017-06-27T20:30:08.723Z,46.40
2017-06-27T20:32:36.968Z,46.40
2017-06-27T20:35:05.240Z,45.70
2017-06-27T20:37:33.268Z,46.30
2017-06-27T20:40:02.141Z,46.80
2017-06-27T20:42:30.000Z,46.80
2017-06-27T20:44:57.811Z,46.90
2017-06-27T20:47:25.616Z,46.80
2017-06-27T20:49:53.661Z,46.70
2017-06-27T20:52:22.117Z,47.10
2017-06-27T20:54:50.023Z,47.10
2017-06-27T20:57:18.280Z,47.30
2017-06-27T20:59:46.167Z,47.50
2017-06-27T21:02:14.064Z,47.50
2017-06-27T21:04:41.928Z,47.80
2017-06-27T21:07:09.907Z,47.80
2017-06-27T21:09:37.758Z,47.80
2017-06-27T21:12:05.677Z,47.90
2017-06-27T21:14:33.861Z,48.00
2017-06-27T21:17:01.801Z,47.80
2017-06-27T21:19:30.354Z,48.50
2017-06-27T21:21:58.217Z,48.50
2017-06-27T21:24:26.145Z,48.40
2017-06-27T21:26:53.943Z,48.60
2017-06-27T21:29:21.409Z,48.50
2017-06-27T21:31:48.875Z,48.60
2017-06-27T21:34:17.137Z,49.10
2017-06-27T21:36:44.693Z,48.60
2017-06-27T21:39:12.149Z,49.00
2017-06-27T21:41:39.604Z,48.80
2017-06-27T21:44:07.156Z,48.90
2017-06-27T21:46:34.622Z,48.80
2017-06-27T21:49:02.196Z,49.10
2017-06-27T21:51:30.432Z,49.70
2017-06-27T21:53:57.907Z,49.10
2017-06-27T21:56:25.385Z,49.10
2017-06-27T21:58:53.613Z,49.80
2017-06-27T22:01:21.098Z,49.20
2017-06-27T22:03:48.654Z,49.10
2017-06-27T22:06:16.241Z,49.40
2017-06-27T22:08:44.503Z,49.40
2017-06-27T22:11:12.047Z,49.40
2017-06-27T22:13:39.614Z,49.50
2017-06-27T22:16:07.177Z,49.80
2017-06-27T22:18:34.647Z,49.20
2017-06-27T22:21:02.898Z,49.50
2017-06-27T22:23:30.353Z,49.50
2017-06-27T22:25:57.911Z,49.20
2017-06-27T22:28:25.385Z,49.20
2017-06-27T22:30:52.855Z,49.40
2017-06-27T22:33:21.068Z,49.60
2017-06-27T22:35:48.525Z,49.50
2017-06-27T22:38:16.022Z,49.50
2017-06-27T22:40:43.487Z,49.50
2017-06-27T22:43:11.905Z,49.70
2017-06-27T22:45:39.374Z,49.70
2017-06-27T22:48:06.931Z,49.70
2017-06-27T22:50:34.439Z,49.80
2017-06-27T22:53:02.710Z,50.50
2017-06-27T22:55:30.268Z,49.80
2017-06-27T22:57:57.893Z,50.10
2017-06-27T23:00:25.354Z,50.20
2017-06-27T23:02:52.825Z,50.00
2017-06-27T23:05:20.283Z,50.20
2017-06-27T23:07:47.758Z,50.00
2017-06-27T23:10:16.017Z,50.40
2017-06-27T23:12:43.573Z,50.30
2017-06-27T23:15:11.136Z,50.60
2017-06-27T23:17:38.607Z,50.30
2017-06-27T23:20:06.878Z,50.40
2017-06-27T23:22:34.425Z,50.40
2017-06-27T23:25:02.073Z,50.50
2017-06-27T23:27:29.549Z,50.30
2017-06-27T23:29:57.016Z,50.40
2017-06-27T23:32:25.235Z,50.60
2017-06-27T23:34:52.797Z,50.50
2017-06-27T23:37:20.267Z,50.50
2017-06-27T23:39:47.753Z,50.60
2017-06-27T23:42:15.241Z,50.80
2017-06-27T23:44:42.700Z,50.90
2017-06-27T23:47:10.260Z,50.90
2017-06-27T23:49:38.679Z,50.70
2017-06-27T23:52:06.329Z,50.90
2017-06-27T23:54:33.794Z,50.80
2017-06-27T23:57:01.265Z,51.10
2017-06-27T23:59:28.736Z,50.90
